Time;durP1;ratioP1;P1;durP2;ratioP2;P2;SDS_P1;SDS_P2;PMS_P1;PMS_P2;Temp;Humidity;BMP_temperature;BMP_pressure;BME280_temperature;BME280_humidity;BME280_pressure;Samples;Min_cycle;Max_cycle;Signal;HPM_P1;HPM_P2
2023/12/25 00:01:16;;;;;;;19.10;17.90;;;;;;;-141.02;100.00;39462.72;5093067;28;20219;-78
2023/12/25 00:03:45;;;;;;;19.37;18.17;;;;;;;-141.02;100.00;39481.88;5092752;28;20316;-79
2023/12/25 00:06:12;;;;;;;19.63;18.43;;;;;;;-141.02;100.00;39497.22;5092693;28;20198;-79
2023/12/25 00:08:39;;;;;;;20.03;18.73;;;;;;;-141.02;100.00;39489.56;5092885;28;20197;-79
2023/12/25 00:11:06;;;;;;;20.40;19.00;;;;;;;-141.02;100.00;39510.66;5092938;28;20273;-78
2023/12/25 00:13:33;;;;;;;20.40;19.00;;;;;;;-141.02;100.00;39503.00;5092880;28;20189;-78
2023/12/25 00:16:00;;;;;;;20.83;19.43;;;;;;;-141.02;100.00;39481.88;5092509;28;20193;-75
2023/12/25 00:18:26;;;;;;;20.40;19.00;;;;;;;-141.02;100.00;39493.41;5092432;28;20285;-79
2023/12/25 00:20:55;;;;;;;20.57;19.17;;;;;;;-141.02;100.00;39466.53;5092440;28;20229;-80
2023/12/25 00:23:22;;;;;;;20.60;19.20;;;;;;;-141.02;100.00;39501.06;5092296;28;20320;-79
2023/12/25 00:25:50;;;;;;;21.00;19.60;;;;;;;-141.02;100.00;39539.44;5092670;28;20285;-78
2023/12/25 00:28:17;;;;;;;20.27;18.87;;;;;;;-141.02;100.00;39503.00;5092333;28;20312;-78
2023/12/25 00:30:43;;;;;;;20.53;19.13;;;;;;;-141.02;100.00;39503.00;5092581;28;20193;-78
2023/12/25 00:33:10;;;;;;;21.73;20.23;;;;;;;-141.02;100.00;39481.88;5092274;28;20198;-79
2023/12/25 00:35:37;;;;;;;20.70;19.20;;;;;;;-141.02;100.00;39489.56;5092221;28;20267;-80
2023/12/25 00:38:06;;;;;;;21.43;19.93;;;;;;;-141.02;100.00;39501.06;5092468;28;20281;-76
2023/12/25 00:40:33;;;;;;;21.10;19.60;;;;;;;-141.02;100.00;39485.72;5092545;28;20198;-79
2023/12/25 00:43:00;;;;;;;20.43;19.03;;;;;;;-141.02;100.00;39524.09;5092099;28;20306;-79
2023/12/25 00:45:26;;;;;;;20.43;19.03;;;;;;;-141.02;100.00;39485.72;5092080;28;20284;-77
2023/12/25 00:47:53;;;;;;;20.67;19.17;;;;;;;-141.02;100.00;39508.75;5092349;28;20630;-78
2023/12/25 00:50:20;;;;;;;21.00;19.50;;;;;;;-141.02;100.00;39539.44;5092026;28;20758;-75
2023/12/25 00:52:47;;;;;;;21.27;19.77;;;;;;;-141.02;100.00;39506.81;5092075;28;20284;-79
2023/12/25 00:55:16;;;;;;;21.20;19.70;;;;;;;-141.02;100.00;39485.72;5091972;28;20193;-79
2023/12/25 00:57:42;;;;;;;20.60;19.20;;;;;;;-141.02;100.00;39483.81;5092016;28;20198;-79
2023/12/25 01:00:10;;;;;;;20.90;19.40;;;;;;;-141.02;100.00;39489.56;5095460;28;20665;-79
2023/12/25 01:02:37;;;;;;;20.77;19.27;;;;;;;-141.02;100.00;39493.41;5096153;28;20268;-76
2023/12/25 01:05:05;;;;;;;21.40;19.90;;;;;;;-141.02;100.00;39495.31;5096127;28;20277;-79
2023/12/25 01:07:32;;;;;;;21.80;20.30;;;;;;;-141.02;100.00;39489.56;5096433;28;20263;-79
2023/12/25 01:09:59;;;;;;;21.40;19.90;;;;;;;-141.02;100.00;39512.56;5096060;28;20229;-78
2023/12/25 01:12:27;;;;;;;21.60;20.10;;;;;;;-141.02;100.00;39483.81;5096351;28;20276;-77
2023/12/25 01:14:54;;;;;;;21.10;19.60;;;;;;;-141.02;100.00;39503.00;5095922;28;20686;-78
2023/12/25 01:17:21;;;;;;;21.50;20.00;;;;;;;-141.02;100.00;39474.22;5095861;28;20288;-77
2023/12/25 01:19:48;;;;;;;21.80;20.30;;;;;;;-141.02;100.00;39508.75;5095883;28;20280;-79
2023/12/25 01:22:15;;;;;;;22.23;20.63;;;;;;;-141.02;100.00;39478.06;5096135;28;20204;-78
2023/12/25 01:24:42;;;;;;;22.10;20.50;;;;;;;-141.02;100.00;39512.56;5095658;28;20321;-79
2023/12/25 01:27:09;;;;;;;22.10;20.50;;;;;;;-141.02;100.00;39501.06;5095536;28;20733;-78
2023/12/25 01:29:37;;;;;;;21.90;20.30;;;;;;;-141.02;100.00;39633.41;5096020;28;20298;-78
2023/12/25 01:32:05;;;;;;;22.10;20.60;;;;;;;-141.02;99.91;39510.66;5095619;28;20285;-78
2023/12/25 01:34:32;;;;;;;21.93;20.43;;;;;;;-141.02;100.00;39481.88;5095604;28;20659;-80
2023/12/25 01:36:59;;;;;;;22.40;20.80;;;;;;;-141.02;100.00;39512.56;5095853;28;20232;-79
2023/12/25 01:39:26;;;;;;;22.43;20.83;;;;;;;-141.02;100.00;39485.72;5095504;28;20196;-80
2023/12/25 01:41:52;;;;;;;22.90;21.30;;;;;;;-141.02;100.00;39489.56;5095436;28;20723;-79
2023/12/25 01:44:19;;;;;;;21.97;20.37;;;;;;;-141.02;100.00;39501.06;5095638;28;20596;-79
2023/12/25 01:46:48;;;;;;;22.37;20.77;;;;;;;-141.02;100.00;39506.81;5095711;28;20194;-78
2023/12/25 01:49:15;;;;;;;21.33;19.83;;;;;;;-141.02;100.00;39485.72;5095618;28;20194;-79
2023/12/25 01:51:42;;;;;;;21.50;20.00;;;;;;;-141.02;100.00;39497.22;5095228;28;20681;-80
2023/12/25 01:54:08;;;;;;;22.73;21.13;;;;;;;-141.02;100.00;39495.31;5095196;28;20285;-79
2023/12/25 01:56:35;;;;;;;21.30;19.80;;;;;;;-141.02;100.00;39495.31;5095154;28;20251;-78
2023/12/25 01:59:02;;;;;;;22.47;20.87;;;;;;;-141.02;100.00;39466.53;5095351;28;20194;-80
2023/12/25 02:01:29;;;;;;;22.50;20.90;;;;;;;-141.02;100.00;39474.22;5095073;28;20197;-80
2023/12/25 02:03:58;;;;;;;22.63;21.07;;;;;;;-141.02;100.00;39497.22;5094994;28;20261;-80
2023/12/25 02:06:26;;;;;;;22.07;20.57;;;;;;;-141.02;100.00;39512.56;5094978;28;20197;-78
2023/12/25 02:08:54;;;;;;;22.23;20.63;;;;;;;-141.02;100.00;39474.22;5094959;28;20205;-79
2023/12/25 02:11:21;;;;;;;22.57;20.97;;;;;;;-141.02;100.00;39508.75;5094885;28;20200;-79
2023/12/25 02:13:49;;;;;;;21.90;20.40;;;;;;;-141.02;100.00;39493.41;5096039;28;20610;-80
2023/12/25 02:16:16;;;;;;;21.30;19.80;;;;;;;-141.02;100.00;39501.06;5094784;28;20554;-81
2023/12/25 02:18:43;;;;;;;22.53;20.93;;;;;;;-141.02;100.00;39456.97;5094762;28;20281;-79
2023/12/25 02:21:12;;;;;;;21.90;20.30;;;;;;;-141.02;99.59;39493.41;5094739;28;20656;-80
2023/12/25 02:23:41;;;;;;;22.30;20.70;;;;;;;-141.02;100.00;39474.22;5094881;28;20226;-80
2023/12/25 02:26:10;;;;;;;22.93;21.33;;;;;;;-141.02;99.36;39479.97;5094624;28;20678;-79
2023/12/25 02:28:37;;;;;;;22.50;20.90;;;;;;;-141.02;99.69;39489.56;5094416;28;20233;-80
2023/12/25 02:31:05;;;;;;;22.30;20.80;;;;;;;-141.02;100.00;39508.75;5094900;28;20273;-77
2023/12/25 02:33:32;;;;;;;22.63;21.03;;;;;;;-141.02;100.00;39470.38;5094798;28;20197;-80
2023/12/25 02:35:59;;;;;;;21.70;20.20;;;;;;;-141.02;100.00;39470.38;5094736;28;20202;-78
2023/12/25 02:38:31;;;;;;;22.20;20.60;;;;;;;-141.02;99.04;39485.72;5094787;28;20221;-80
2023/12/25 02:40:58;;;;;;;21.60;20.10;;;;;;;-141.02;99.65;39489.56;5094738;28;20251;-78
2023/12/25 02:43:26;;;;;;;22.40;20.80;;;;;;;-141.02;99.81;39474.22;5094687;28;20232;-74
2023/12/25 02:45:53;;;;;;;23.10;21.50;;;;;;;-141.02;99.62;39468.47;5094530;28;20232;-79
2023/12/25 02:48:20;;;;;;;22.97;21.37;;;;;;;-141.02;99.47;39495.31;5094494;28;20194;-79
2023/12/25 02:50:47;;;;;;;22.23;20.63;;;;;;;-141.02;100.00;39504.91;5094151;28;20548;-77
2023/12/25 02:53:14;;;;;;;23.83;22.23;;;;;;;-141.02;99.00;39479.97;5094424;28;20280;-77
2023/12/25 02:55:41;;;;;;;23.00;21.40;;;;;;;-141.02;100.00;39512.56;5094347;28;20288;-78
2023/12/25 02:58:08;;;;;;;22.83;21.23;;;;;;;-141.02;100.00;39476.13;5094263;28;20308;-77
2023/12/25 03:00:36;;;;;;;22.67;21.17;;;;;;;-141.02;100.00;39466.53;5094241;28;20202;-77
2023/12/25 03:03:04;;;;;;;22.80;21.20;;;;;;;-141.02;100.00;39470.38;5093724;28;20285;-76
2023/12/25 03:05:31;;;;;;;22.43;20.90;;;;;;;-141.02;100.00;39497.22;5093868;28;20200;-78
2023/12/25 03:07:58;;;;;;;21.53;20.03;;;;;;;-141.02;100.00;39485.72;5093848;28;20197;-78
2023/12/25 03:10:24;;;;;;;25.20;23.50;;;;;;;-141.02;100.00;39481.88;5093998;28;20193;-77
2023/12/25 03:12:51;;;;;;;26.97;25.27;;;;;;;-141.02;100.00;39474.22;5094029;28;20216;-76
2023/12/25 03:15:18;;;;;;;22.10;20.60;;;;;;;-141.02;100.00;39485.72;5093938;28;20280;-77
2023/12/25 03:17:47;;;;;;;22.20;20.70;;;;;;;-141.02;100.00;39485.72;5093597;28;20622;-77
2023/12/25 03:20:14;;;;;;;27.37;25.57;;;;;;;-141.02;100.00;39501.06;5093586;28;20196;-77
2023/12/25 03:22:40;;;;;;;26.67;24.87;;;;;;;-141.02;100.00;39476.13;5093273;28;20281;-77
2023/12/25 03:25:08;;;;;;;22.37;20.83;;;;;;;-141.02;100.00;39464.63;5093747;28;20239;-76
2023/12/25 03:27:35;;;;;;;21.70;20.20;;;;;;;-141.02;100.00;39474.22;5093191;28;20225;-77
2023/12/25 03:30:02;;;;;;;25.77;24.07;;;;;;;-141.02;100.00;39474.22;5093674;28;20228;-77
2023/12/25 03:32:29;;;;;;;21.57;20.07;;;;;;;-141.02;100.00;39478.06;5093616;28;20284;-78
2023/12/25 03:34:57;;;;;;;21.80;20.20;;;;;;;-141.02;100.00;39025.47;5093265;28;20198;-77
2023/12/25 03:37:24;;;;;;;25.80;24.10;;;;;;;-141.02;100.00;39470.38;5093252;28;20289;-77
2023/12/25 03:39:51;;;;;;;26.53;24.77;;;;;;;-141.02;100.00;39485.72;5093195;28;20731;-77
2023/12/25 03:42:18;;;;;;;21.67;20.17;;;;;;;-141.02;100.00;39478.06;5093455;28;20190;-77
2023/12/25 03:44:45;;;;;;;22.53;20.93;;;;;;;-141.02;100.00;39491.47;5093031;28;20312;-77
2023/12/25 03:47:13;;;;;;;25.60;23.90;;;;;;;-141.02;100.00;39460.78;5093386;28;20301;-77
2023/12/25 03:49:40;;;;;;;21.53;20.03;;;;;;;-141.02;100.00;39493.41;5093299;28;20198;-76
2023/12/25 03:52:08;;;;;;;21.60;20.03;;;;;;;-141.02;100.00;39478.06;5092954;28;20284;-76
2023/12/25 03:54:35;;;;;;;25.97;24.17;;;;;;;-141.02;100.00;39474.22;5093295;28;20208;-78
2023/12/25 03:57:02;;;;;;;27.10;25.30;;;;;;;-141.02;100.00;39481.88;5092897;28;20193;-77
2023/12/25 03:59:29;;;;;;;20.67;19.27;;;;;;;-141.02;100.00;39474.22;5093190;28;20293;-77
2023/12/25 04:01:56;;;;;;;20.07;18.67;;;;;;;-141.02;100.00;39476.13;5093066;28;20197;-77
2023/12/25 04:04:23;;;;;;;25.53;23.83;;;;;;;-141.02;100.00;39458.88;5092693;28;20233;-78
2023/12/25 04:06:50;;;;;;;25.43;23.73;;;;;;;-141.02;100.00;39462.72;5092693;28;20194;-77
2023/12/25 04:09:18;;;;;;;20.30;18.90;;;;;;;-141.02;100.00;39470.38;5092644;28;20284;-76
2023/12/25 04:11:45;;;;;;;20.13;18.77;;;;;;;-141.02;100.00;39493.41;5092925;28;20280;-78
2023/12/25 04:14:12;;;;;;;25.37;23.73;;;;;;;-141.02;100.00;39439.69;5092587;28;20280;-76
2023/12/25 04:16:39;;;;;;;20.00;18.60;;;;;;;-141.02;100.00;39458.88;5092852;28;20197;-78
2023/12/25 04:19:06;;;;;;;20.17;18.77;;;;;;;-141.02;100.00;39455.03;5092810;28;20281;-78
2023/12/25 04:21:33;;;;;;;25.40;23.70;;;;;;;-141.02;100.00;39562.44;5092398;28;20241;-78
2023/12/25 04:24:01;;;;;;;25.53;23.93;;;;;;;-141.02;100.00;39474.22;5092368;28;20753;-76
2023/12/25 04:26:30;;;;;;;20.60;19.20;;;;;;;-141.02;100.00;39481.88;5092387;28;20197;-76
2023/12/25 04:28:57;;;;;;;20.37;18.97;;;;;;;-141.02;100.00;39464.63;5092365;28;20677;-77
2023/12/25 04:31:24;;;;;;;24.83;23.17;;;;;;;-141.02;100.00;39483.81;5092338;28;20229;-76
2023/12/25 04:33:51;;;;;;;21.40;19.90;;;;;;;-141.02;100.00;39462.72;5091715;28;20623;-76
2023/12/25 04:36:18;;;;;;;21.20;19.70;;;;;;;-141.02;100.00;39470.38;5092242;28;20233;-76
2023/12/25 04:38:45;;;;;;;19.73;18.33;;;;;;;-141.02;100.00;39455.03;5092545;28;20194;-79
2023/12/25 04:41:12;;;;;;;26.33;24.53;;;;;;;-141.02;100.00;39596.97;5092484;28;20248;-76
2023/12/25 04:43:40;;;;;;;20.93;19.43;;;;;;;-141.02;100.00;39455.03;5092334;28;20281;-78
2023/12/25 04:46:08;;;;;;;21.27;19.70;;;;;;;-141.02;100.00;39458.88;5092143;28;20204;-76
2023/12/25 04:48:35;;;;;;;26.30;24.50;;;;;;;-141.02;100.00;39485.72;5092086;28;20197;-78
2023/12/25 04:51:03;;;;;;;26.20;24.40;;;;;;;-141.02;100.00;39535.59;5092082;28;20675;-76
2023/12/25 04:53:31;;;;;;;21.70;20.20;;;;;;;-141.02;100.00;39466.53;5092040;28;20289;-77
2023/12/25 04:55:58;;;;;;;21.27;19.77;;;;;;;-141.02;100.00;39443.53;5092009;28;20198;-77
2023/12/25 04:58:25;;;;;;;25.83;24.03;;;;;;;-141.02;100.00;39435.88;5092302;28;20235;-76
2023/12/25 05:00:54;;;;;;;22.70;21.10;;;;;;;-141.02;100.00;39455.03;5092340;28;20201;-77
2023/12/25 05:03:21;;;;;;;21.17;19.67;;;;;;;-141.02;100.00;39432.03;5091938;28;20290;-77
2023/12/25 05:05:48;;;;;;;21.30;19.80;;;;;;;-141.02;100.00;39435.88;5091848;28;20232;-77
2023/12/25 05:08:15;;;;;;;20.70;19.20;;;;;;;-141.02;100.00;39455.03;5091856;28;20284;-77
2023/12/25 05:10:42;;;;;;;20.53;19.03;;;;;;;-141.02;100.00;39470.38;5091880;28;20690;-76
2023/12/25 05:13:09;;;;;;;20.40;18.90;;;;;;;-141.02;100.00;39416.69;5092080;28;20190;-76
2023/12/25 05:15:36;;;;;;;20.90;19.40;;;;;;;-141.02;100.00;39451.22;5091785;28;20289;-77
2023/12/25 05:18:05;;;;;;;21.20;19.60;;;;;;;-141.02;100.00;39460.78;5092187;28;20280;-75
2023/12/25 05:20:32;;;;;;;20.40;18.90;;;;;;;-141.02;100.00;39451.22;5092142;28;20200;-76
2023/12/25 05:22:59;;;;;;;20.90;19.40;;;;;;;-141.02;100.00;39451.22;5092119;28;20277;-77
2023/12/25 05:25:26;;;;;;;20.83;19.33;;;;;;;-141.02;100.00;39420.53;5091588;28;20601;-77
2023/12/25 05:27:53;;;;;;;20.67;19.17;;;;;;;-141.02;100.00;39458.88;5091560;28;20703;-77
2023/12/25 05:30:20;;;;;;;20.80;19.30;;;;;;;-141.02;100.00;39432.03;5092047;28;20200;-75
2023/12/25 05:32:47;;;;;;;20.93;19.43;;;;;;;-141.02;100.00;39522.16;5091995;28;20202;-77
2023/12/25 05:35:15;;;;;;;20.77;19.27;;;;;;;-141.02;99.22;39573.94;5091637;28;20198;-77
2023/12/25 05:37:42;;;;;;;20.93;19.33;;;;;;;-141.02;100.00;39543.25;5091609;28;20660;-78
2023/12/25 05:40:10;;;;;;;20.30;18.80;;;;;;;-141.02;100.00;39572.03;5091606;28;20230;-76
2023/12/25 05:42:37;;;;;;;20.83;19.33;;;;;;;-141.02;100.00;39627.66;5091870;28;20626;-76
2023/12/25 05:45:05;;;;;;;20.77;19.27;;;;;;;-141.02;100.00;39650.66;5092639;28;20312;-74
2023/12/25 05:47:32;;;;;;;20.67;19.20;;;;;;;-141.02;99.50;39727.38;5095412;28;20606;-77
2023/12/25 05:49:59;;;;;;;21.00;19.50;;;;;;;-141.02;99.65;39761.91;5095305;28;20660;-75
2023/12/25 05:52:27;;;;;;;21.10;19.60;;;;;;;-141.02;100.00;39825.19;5095725;28;20225;-77
2023/12/25 05:54:54;;;;;;;21.00;19.50;;;;;;;-141.02;100.00;39842.47;5095622;28;20281;-77
2023/12/25 05:57:21;;;;;;;19.63;18.23;;;;;;;-141.02;100.00;39877.00;5095507;28;20204;-77
2023/12/25 05:59:48;;;;;;;20.63;19.23;;;;;;;-141.02;100.00;39976.72;5095246;28;20674;-76
2023/12/25 06:02:15;;;;;;;20.17;18.77;;;;;;;-141.02;100.00;40038.09;5095044;28;20568;-74
2023/12/25 06:04:42;;;;;;;20.53;19.13;;;;;;;-141.02;100.00;40091.81;5095259;28;20255;-79
2023/12/25 06:07:09;;;;;;;20.50;19.10;;;;;;;-141.02;100.00;40149.38;5095303;28;20197;-78
2023/12/25 06:09:38;;;;;;;20.37;18.87;;;;;;;-141.02;100.00;40160.88;5094972;28;20721;-79
2023/12/25 06:12:06;;;;;;;20.30;18.80;;;;;;;-141.02;99.13;40233.75;5094923;28;20296;-79
2023/12/25 06:14:33;;;;;;;20.70;19.20;;;;;;;-141.02;97.08;40212.66;5095139;28;20194;-79
2023/12/25 06:17:00;;;;;;;21.13;19.53;;;;;;;-141.02;95.72;40214.59;5094769;28;20566;-76
2023/12/25 06:19:27;;;;;;;20.93;19.43;;;;;;;-141.02;95.57;40270.22;5094716;28;20692;-78
2023/12/25 06:21:54;;;;;;;20.90;19.40;;;;;;;-141.02;96.33;40298.97;5094725;28;20284;-79
2023/12/25 06:24:20;;;;;;;20.93;19.33;;;;;;;-141.02;96.66;40329.69;5094598;28;20312;-79
2023/12/25 06:26:49;;;;;;;20.73;19.17;;;;;;;-141.02;96.58;40325.84;5094423;28;20201;-78
2023/12/25 06:29:16;;;;;;;20.83;19.27;;;;;;;-141.02;96.25;40375.72;5094987;28;20209;-80
2023/12/25 06:31:46;;;;;;;20.73;19.13;;;;;;;-141.02;96.41;40371.88;5094839;28;20200;-78
2023/12/25 06:34:13;;;;;;;20.70;19.10;;;;;;;-141.02;97.45;40479.31;5094899;28;20272;-78
2023/12/25 06:36:40;;;;;;;20.70;19.10;;;;;;;-141.02;97.68;40648.13;5094731;28;20194;-78
2023/12/25 06:39:07;;;;;;;20.50;18.90;;;;;;;-141.02;97.65;40717.19;5094394;28;20220;-78
2023/12/25 06:41:34;;;;;;;21.03;19.43;;;;;;;-141.02;97.46;40688.44;5094333;28;20604;-79
2023/12/25 06:44:02;;;;;;;20.90;19.30;;;;;;;-141.02;96.10;40732.56;5094322;28;20735;-76
2023/12/25 06:46:29;;;;;;;22.43;20.73;;;;;;;-141.02;95.50;40761.31;5094280;28;20682;-77
2023/12/25 06:48:56;;;;;;;21.20;19.50;;;;;;;-141.02;94.08;40782.44;5094120;28;20204;-78
2023/12/25 06:51:23;;;;;;;20.67;19.00;;;;;;;-141.02;93.52;40801.63;5094472;28;20194;-78
2023/12/25 06:53:53;;;;;;;21.60;19.90;;;;;;;-141.02;91.74;40805.47;5094399;28;20197;-76
2023/12/25 06:56:21;;;;;;;21.73;20.03;;;;;;;-141.02;91.64;40805.47;5093127;28;20588;-77
2023/12/25 06:58:47;;;;;;;22.02;20.33;;;;;;;-141.02;90.11;40841.91;5094314;28;20247;-76
2023/12/25 07:01:22;;;;;;;22.67;20.87;;;;;;;-141.02;86.96;40851.50;5093970;28;20190;-75
2023/12/25 07:03:49;;;;;;;22.80;21.00;;;;;;;-141.02;86.31;40882.19;5094002;28;20196;-77
2023/12/25 07:06:16;;;;;;;23.10;21.20;;;;;;;-141.02;83.47;40934.00;5094054;28;20233;-76
2023/12/25 07:08:43;;;;;;;23.33;21.42;;;;;;;-141.02;82.73;40920.56;5094112;28;20197;-75
2023/12/25 07:11:10;;;;;;;23.75;21.75;;;;;;;-141.02;81.72;40934.00;5093671;28;20285;-77
2023/12/25 07:13:37;;;;;;;23.77;21.77;;;;;;;-141.02;81.43;40949.34;5093700;28;20194;-76
2023/12/25 07:16:04;;;;;;;23.30;21.30;;;;;;;-141.02;79.69;40962.78;5094006;28;20189;-78
2023/12/25 07:18:33;;;;;;;23.60;21.60;;;;;;;-141.02;78.80;40997.31;5093589;28;20576;-76
2023/12/25 07:21:00;;;;;;;24.33;22.23;;;;;;;-141.02;77.28;41035.69;5093637;28;20193;-77
2023/12/25 07:23:26;;;;;;;24.80;22.70;;;;;;;-141.02;76.44;41039.53;5093459;28;20672;-76
2023/12/25 07:25:54;;;;;;;24.25;22.17;;;;;;;-141.02;75.51;41070.22;5093354;28;20315;-77
2023/12/25 07:28:21;;;;;;;24.85;22.75;;;;;;;-141.02;74.14;41083.66;5093135;28;20233;-76
2023/12/25 07:30:48;;;;;;;23.73;21.63;;;;;;;-141.02;71.90;41089.41;5093601;28;20201;-77
2023/12/25 07:33:15;;;;;;;23.73;21.67;;;;;;;-141.02;70.82;41100.94;5094492;28;20197;-77
2023/12/25 07:35:43;;;;;;;23.90;21.90;;;;;;;-141.02;70.13;41127.78;5093272;28;20199;-77
2023/12/25 07:38:10;;;;;;;23.80;21.80;;;;;;;-141.02;69.67;41139.31;5093284;28;20284;-77
2023/12/25 07:40:37;;;;;;;24.33;22.33;;;;;;;-141.02;68.86;41135.47;5093210;28;20197;-76
2023/12/25 07:43:07;;;;;;;24.10;22.10;;;;;;;-141.02;68.97;41143.16;5093177;28;20194;-77
2023/12/25 07:45:34;;;;;;;26.05;23.95;;;;;;;-141.02;66.94;41104.78;5093448;28;20225;-76
2023/12/25 07:48:01;;;;;;;27.08;24.98;;;;;;;-141.02;66.52;41118.19;5093347;28;20277;-75
2023/12/25 07:50:27;;;;;;;23.70;21.70;;;;;;;-141.02;65.08;41166.16;5093080;28;20196;-78
2023/12/25 07:52:56;;;;;;;27.65;25.35;;;;;;;-141.02;64.30;41229.50;5093240;28;20194;-77
2023/12/25 07:55:23;;;;;;;27.88;25.65;;;;;;;-141.02;64.74;41308.16;5092939;28;20228;-77
2023/12/25 07:57:50;;;;;;;29.30;27.00;;;;;;;-141.02;63.38;41269.78;5092828;28;20194;-77
2023/12/25 08:00:17;;;;;;;25.30;23.20;;;;;;;-141.02;62.71;41300.50;5093168;28;20280;-76
2023/12/25 08:02:44;;;;;;;25.05;23.05;;;;;;;-141.02;63.61;41323.50;5092781;28;20656;-73
2023/12/25 08:05:10;;;;;;;24.83;22.65;;;;;;;-141.02;62.28;41338.88;5092643;28;20218;-76
2023/12/25 08:07:37;;;;;;;24.92;22.73;;;;;;;-141.02;62.18;41319.69;5092614;28;20683;-75
2023/12/25 08:10:06;;;;;;;25.73;23.42;;;;;;;-141.02;61.77;41304.31;5092672;28;20197;-74
2023/12/25 08:12:33;;;;;;;25.05;22.75;;;;;;;-141.02;62.65;41342.69;5093508;28;20198;-76
2023/12/25 08:15:00;;;;;;;24.38;22.17;;;;;;;-141.02;63.62;41340.78;5092581;28;20590;-75
2023/12/25 08:17:27;;;;;;;23.85;21.75;;;;;;;-141.02;62.90;41402.19;5092812;28;20194;-77
2023/12/25 08:19:54;;;;;;;24.08;21.98;;;;;;;-141.02;62.77;41442.50;5092830;28;20209;-72
2023/12/25 08:22:21;;;;;;;24.35;22.10;;;;;;;-141.02;60.94;41455.91;5092747;28;20198;-76
2023/12/25 08:24:50;;;;;;;25.50;23.10;;;;;;;-141.02;60.14;41406.03;5092698;28;20190;-77
2023/12/25 08:27:18;;;;;;;25.13;22.73;;;;;;;-141.02;61.08;41415.63;5092228;28;20715;-76
2023/12/25 08:29:45;;;;;;;25.98;23.48;;;;;;;-141.02;61.34;41457.84;5092318;28;20648;-75
2023/12/25 08:32:13;;;;;;;25.88;23.38;;;;;;;-141.02;61.16;41530.75;5092338;28;20194;-75
2023/12/25 08:34:41;;;;;;;24.98;22.58;;;;;;;-141.02;61.19;41582.56;5092226;28;20202;-76
2023/12/25 08:37:08;;;;;;;25.73;23.33;;;;;;;-141.02;60.04;41569.13;5092540;28;20221;-75
2023/12/25 08:39:35;;;;;;;26.20;23.70;;;;;;;-141.02;60.36;41645.91;5092229;28;20736;-75
2023/12/25 08:42:03;;;;;;;28.17;25.42;;;;;;;-141.02;57.94;41582.56;5092200;28;20200;-75
2023/12/25 08:44:33;;;;;;;27.23;24.63;;;;;;;-141.02;58.65;41668.94;5092174;28;20286;-75
2023/12/25 08:47:00;;;;;;;27.15;24.55;;;;;;;-141.02;58.31;41707.31;5092839;28;20225;-75
2023/12/25 08:49:27;;;;;;;27.63;25.00;;;;;;;-141.02;57.45;41667.00;5092120;28;20201;-75
2023/12/25 08:51:54;;;;;;;27.58;24.95;;;;;;;-141.02;56.95;41657.41;5092373;28;20190;-76
2023/12/25 08:54:21;;;;;;;27.88;25.08;;;;;;;-141.02;55.37;41605.59;5092028;28;20652;-75
2023/12/25 08:56:49;;;;;;;28.23;25.33;;;;;;;-141.02;55.60;41549.94;5092323;28;20196;-74
2023/12/25 08:59:16;;;;;;;27.45;24.65;;;;;;;-141.02;56.33;41599.84;5091997;28;20223;-74
2023/12/25 09:01:44;;;;;;;26.20;23.50;;;;;;;-141.02;56.73;41622.88;5092310;28;20193;-74
2023/12/25 09:04:12;;;;;;;26.23;23.63;;;;;;;-141.02;57.60;41672.78;5091962;28;20186;-74
2023/12/25 09:06:41;;;;;;;26.17;23.63;;;;;;;-141.02;57.11;41688.13;5092214;28;20225;-73
2023/12/25 09:09:09;;;;;;;27.70;25.00;;;;;;;-141.02;57.89;41764.88;5091879;28;20236;-71
2023/12/25 09:11:36;;;;;;;27.05;24.35;;;;;;;-141.02;55.79;41672.78;5091876;28;20202;-74
2023/12/25 09:14:03;;;;;;;31.17;28.17;;;;;;;-141.02;56.50;41647.81;5092168;28;20194;-72
2023/12/25 09:16:30;;;;;;;30.15;27.25;;;;;;;-141.02;57.32;41657.41;5092132;28;20225;-71
2023/12/25 09:18:59;;;;;;;29.95;27.15;;;;;;;-141.02;57.34;41676.59;5092177;28;20216;-72
2023/12/25 09:21:26;;;;;;;31.77;28.77;;;;;;;-141.02;56.13;41630.56;5095142;28;20593;-73
2023/12/25 09:23:52;;;;;;;30.13;27.23;;;;;;;-141.02;57.45;41726.50;5096064;28;20189;-72
2023/12/25 09:26:20;;;;;;;30.23;27.33;;;;;;;-141.02;56.07;41663.19;5096048;28;20225;-73
2023/12/25 09:28:47;;;;;;;31.05;28.15;;;;;;;-141.02;56.26;41684.28;5095649;28;20228;-72
2023/12/25 09:31:15;;;;;;;30.80;27.85;;;;;;;-141.02;56.66;41713.06;5096048;28;20245;-73
2023/12/25 09:33:42;;;;;;;31.92;28.90;;;;;;;-141.02;56.67;41718.81;5095954;28;20204;-72
2023/12/25 09:36:10;;;;;;;30.88;27.88;;;;;;;-141.02;56.62;41764.88;5095644;28;20200;-73
2023/12/25 09:38:37;;;;;;;28.48;25.67;;;;;;;-141.02;57.54;41845.50;5095521;28;20731;-73
2023/12/25 09:41:07;;;;;;;26.80;24.10;;;;;;;-141.02;57.02;41858.94;5095821;28;20194;-73
2023/12/25 09:43:38;;;;;;;27.42;24.63;;;;;;;-141.02;57.31;41732.25;5095540;28;20197;-73
2023/12/25 09:46:05;;;;;;;28.40;25.50;;;;;;;-141.02;56.65;41686.19;5095440;28;20224;-73
2023/12/25 09:48:32;;;;;;;27.73;24.83;;;;;;;-141.02;56.24;41745.69;5095714;28;20204;-73
2023/12/25 09:51:00;;;;;;;27.38;24.52;;;;;;;-141.02;56.62;41676.59;5095341;28;20690;-72
2023/12/25 09:53:29;;;;;;;28.23;25.33;;;;;;;-141.02;55.92;41630.56;5095314;28;20200;-73
2023/12/25 09:55:57;;;;;;;27.65;24.85;;;;;;;-141.02;56.65;41674.69;5095224;28;20624;-72
2023/12/25 09:58:24;;;;;;;27.73;24.92;;;;;;;-141.02;56.62;41645.91;5095556;28;20190;-72
2023/12/25 10:00:53;;;;;;;27.50;24.65;;;;;;;-141.02;56.53;41680.44;5095146;28;20190;-72
2023/12/25 10:03:21;;;;;;;27.20;24.35;;;;;;;-141.02;57.49;41676.59;5095044;28;20198;-72
2023/12/25 10:05:48;;;;;;;28.05;25.15;;;;;;;-141.02;57.43;41684.28;5095273;28;20308;-73
2023/12/25 10:08:15;;;;;;;28.98;26.00;;;;;;;-141.02;56.36;41684.28;5095471;28;20284;-71
2023/12/25 10:10:45;;;;;;;28.67;25.70;;;;;;;-141.02;55.88;41672.78;5095315;28;20241;-72
2023/12/25 10:13:13;;;;;;;27.80;25.00;;;;;;;-141.02;56.76;41688.13;5095215;28;20194;-72
2023/12/25 10:15:40;;;;;;;28.50;25.60;;;;;;;-141.02;55.92;41626.72;5094890;28;20190;-71
2023/12/25 10:18:08;;;;;;;28.17;25.38;;;;;;;-141.02;57.34;41707.31;5095111;28;20285;-72
2023/12/25 10:20:35;;;;;;;29.15;26.25;;;;;;;-141.02;56.36;41726.50;5094816;28;20614;-71
2023/12/25 10:23:12;;;;;;;27.38;24.67;;;;;;;-141.02;54.69;41695.81;5095039;28;20277;-73
2023/12/25 10:25:44;;;;;;;27.27;24.58;;;;;;;-141.02;54.37;41707.31;5095432;28;20214;-71
2023/12/25 10:28:13;;;;;;;26.40;23.70;;;;;;;-141.02;56.25;41745.69;5094587;28;20229;-71
2023/12/25 10:30:40;;;;;;;27.90;25.20;;;;;;;-141.02;55.08;41738.03;5094467;28;20197;-72
2023/12/25 10:33:13;;;;;;;28.40;25.70;;;;;;;-141.02;55.63;41784.06;5093881;28;20408;-73
2023/12/25 10:35:40;;;;;;;30.20;27.30;;;;;;;-141.02;54.26;41795.59;5094763;28;20580;-73
2023/12/25 10:38:08;;;;;;;28.35;25.55;;;;;;;-141.02;53.89;41761.06;5094439;28;20212;-72
2023/12/25 10:40:36;;;;;;;27.42;24.65;;;;;;;-141.02;54.12;41833.97;5094402;28;20230;-72
2023/12/25 10:43:04;;;;;;;27.67;24.98;;;;;;;-141.02;54.76;41651.66;5094669;28;20225;-72
2023/12/25 10:45:34;;;;;;;29.25;26.48;;;;;;;-141.02;55.95;41849.34;5094552;28;20198;-72
2023/12/25 10:48:02;;;;;;;27.52;24.83;;;;;;;-141.02;55.74;41876.19;5094250;28;20193;-73
2023/12/25 10:50:34;;;;;;;27.25;24.73;;;;;;;-141.02;55.55;41918.41;5094218;28;20721;-73
2023/12/25 10:53:03;;;;;;;28.23;25.52;;;;;;;-141.02;54.50;41891.56;5094424;28;20186;-70
2023/12/25 10:55:36;;;;;;;28.55;25.95;;;;;;;-141.02;55.45;41906.91;5094061;28;20733;-71
2023/12/25 10:58:04;;;;;;;30.33;27.52;;;;;;;-141.02;55.20;41891.56;5094365;28;20194;-72